Time;durP1;ratioP1;P1;durP2;ratioP2;P2;SDS_P1;SDS_P2;PMS_P1;PMS_P2;Temp;Humidity;BMP_temperature;BMP_pressure;BME280_temperature;BME280_humidity;BME280_pressure;Samples;Min_cycle;Max_cycle;Signal;HPM_P1;HPM_P2
2022/12/11 00:01:31;;;;;;;0.80;0.80;;;;;;;;;;4537581;28;20115;-64
2022/12/11 00:03:42;;;;;;;0.90;0.90;;;;;;;;;;4531525;28;20116;-64
2022/12/11 00:05:52;;;;;;;0.82;0.82;;;;;;;;;;4545315;28;20041;-64
2022/12/11 00:08:02;;;;;;;0.90;0.90;;;;;;;;;;4530269;28;20037;-64
2022/12/11 00:10:13;;;;;;;0.90;0.80;;;;;;;;;;4546573;28;20040;-64
2022/12/11 00:12:23;;;;;;;0.90;0.90;;;;;;;;;;4546179;28;20409;-64
2022/12/11 00:14:33;;;;;;;0.70;0.70;;;;;;;;;;4545652;28;20069;-64
2022/12/11 00:16:46;;;;;;;0.70;0.70;;;;;;;;;;4527581;28;20104;-64
2022/12/11 00:18:56;;;;;;;0.73;0.73;;;;;;;;;;4544183;28;20065;-64
2022/12/11 00:21:08;;;;;;;0.77;0.77;;;;;;;;;;4545878;28;20050;-64
2022/12/11 00:23:18;;;;;;;0.90;0.90;;;;;;;;;;4549710;28;20036;-65
2022/12/11 00:25:29;;;;;;;0.80;0.80;;;;;;;;;;4547313;28;20412;-64
2022/12/11 00:27:39;;;;;;;0.70;0.70;;;;;;;;;;4550314;28;20187;-64
2022/12/11 00:29:49;;;;;;;0.75;0.75;;;;;;;;;;4549127;28;20037;-64
2022/12/11 00:32:00;;;;;;;0.80;0.80;;;;;;;;;;4551275;28;20039;-64
2022/12/11 00:34:10;;;;;;;0.70;0.70;;;;;;;;;;4548006;28;20942;-64
2022/12/11 00:36:22;;;;;;;0.90;0.90;;;;;;;;;;4549647;28;20036;-64
2022/12/11 00:38:33;;;;;;;0.73;0.73;;;;;;;;;;4547574;28;20634;-64
2022/12/11 00:40:43;;;;;;;0.85;0.80;;;;;;;;;;4550216;28;20029;-64
2022/12/11 00:42:53;;;;;;;0.70;0.70;;;;;;;;;;4548395;28;20469;-64
2022/12/11 00:45:04;;;;;;;0.70;0.70;;;;;;;;;;4549461;28;20378;-64
2022/12/11 00:47:14;;;;;;;0.73;0.73;;;;;;;;;;4549303;28;20533;-64
2022/12/11 00:49:24;;;;;;;0.88;0.88;;;;;;;;;;4548224;28;20033;-64
2022/12/11 00:51:35;;;;;;;0.75;0.75;;;;;;;;;;4546454;28;20128;-63
2022/12/11 00:53:45;;;;;;;0.70;0.70;;;;;;;;;;4549484;28;20028;-64
2022/12/11 00:55:56;;;;;;;0.75;0.75;;;;;;;;;;4548747;28;20115;-64
2022/12/11 00:58:06;;;;;;;0.75;0.75;;;;;;;;;;4547998;28;20044;-64
2022/12/11 01:00:16;;;;;;;0.80;0.80;;;;;;;;;;4547764;28;20083;-64
2022/12/11 01:02:27;;;;;;;0.77;0.75;;;;;;;;;;4548292;28;20040;-64
2022/12/11 01:04:37;;;;;;;0.80;0.80;;;;;;;;;;4547806;28;20032;-64
2022/12/11 01:06:47;;;;;;;1.00;0.90;;;;;;;;;;4548027;28;20044;-64
2022/12/11 01:11:26;;;;;;;0.70;0.70;;;;;;;;;;4546959;28;21090;-64
2022/12/11 01:13:37;;;;;;;0.80;0.80;;;;;;;;;;4548052;28;20131;-64
2022/12/11 01:15:47;;;;;;;0.70;0.70;;;;;;;;;;4539345;28;20044;-64
2022/12/11 01:17:58;;;;;;;1.00;0.70;;;;;;;;;;4548858;28;20051;-64
2022/12/11 01:20:08;;;;;;;0.70;0.70;;;;;;;;;;4535974;28;20044;-64
2022/12/11 01:22:19;;;;;;;0.77;0.77;;;;;;;;;;4547740;28;20041;-64
2022/12/11 01:24:29;;;;;;;0.70;0.70;;;;;;;;;;4548240;28;20056;-64
2022/12/11 01:26:39;;;;;;;0.70;0.70;;;;;;;;;;4545788;28;20477;-64
2022/12/11 01:28:50;;;;;;;0.70;0.70;;;;;;;;;;4547919;28;20908;-64
2022/12/11 01:31:00;;;;;;;0.60;0.60;;;;;;;;;;4548016;28;20519;-64
2022/12/11 01:33:11;;;;;;;0.77;0.77;;;;;;;;;;4546891;28;20037;-64
2022/12/11 01:35:21;;;;;;;0.75;0.75;;;;;;;;;;4547686;28;20049;-64
2022/12/11 01:37:32;;;;;;;0.70;0.70;;;;;;;;;;4517685;28;20040;-65
2022/12/11 01:39:42;;;;;;;0.80;0.80;;;;;;;;;;4549146;28;20037;-64
2022/12/11 01:41:56;;;;;;;0.70;0.70;;;;;;;;;;4549001;28;20064;-64
2022/12/11 01:44:27;;;;;;;0.80;0.80;;;;;;;;;;4544836;28;20040;-64
2022/12/11 01:46:37;;;;;;;0.80;0.80;;;;;;;;;;4548373;28;20037;-64
2022/12/11 01:48:47;;;;;;;0.88;0.88;;;;;;;;;;4547886;28;20444;-64
2022/12/11 01:51:00;;;;;;;0.73;0.73;;;;;;;;;;4546279;28;20056;-64
2022/12/11 01:53:11;;;;;;;0.82;0.82;;;;;;;;;;4547698;28;20132;-64
2022/12/11 01:55:22;;;;;;;0.90;0.90;;;;;;;;;;4548075;28;20072;-64
2022/12/11 01:57:32;;;;;;;0.63;0.63;;;;;;;;;;4547503;28;20135;-64
2022/12/11 01:59:44;;;;;;;0.75;0.75;;;;;;;;;;4548486;28;20045;-64
2022/12/11 02:01:58;;;;;;;0.73;0.73;;;;;;;;;;4546185;28;20041;-64
2022/12/11 02:04:09;;;;;;;0.80;0.80;;;;;;;;;;4547153;28;20032;-64
2022/12/11 02:06:35;;;;;;;0.80;0.80;;;;;;;;;;4549719;28;20040;-64
2022/12/11 02:08:45;;;;;;;0.80;0.80;;;;;;;;;;4547780;28;20175;-64
2022/12/11 02:11:05;;;;;;;0.55;0.55;;;;;;;;;;4547450;28;20163;-64
2022/12/11 02:13:28;;;;;;;0.60;0.60;;;;;;;;;;4531683;28;20037;-64
2022/12/11 02:15:59;;;;;;;0.80;0.80;;;;;;;;;;4546378;28;20044;-65
2022/12/11 02:18:09;;;;;;;0.80;0.80;;;;;;;;;;4546805;28;20889;-64
2022/12/11 02:20:26;;;;;;;0.80;0.80;;;;;;;;;;4547043;28;20433;-65
2022/12/11 02:22:49;;;;;;;0.70;0.70;;;;;;;;;;4547455;28;20037;-64
2022/12/11 02:25:24;;;;;;;0.60;0.60;;;;;;;;;;4546705;28;20044;-64
2022/12/11 02:27:39;;;;;;;0.70;0.70;;;;;;;;;;4547470;28;20036;-64
2022/12/11 02:29:53;;;;;;;0.75;0.75;;;;;;;;;;4546699;28;20610;-64
2022/12/11 02:32:16;;;;;;;0.80;0.80;;;;;;;;;;4546518;28;20028;-64
2022/12/11 02:35:01;;;;;;;0.80;0.80;;;;;;;;;;4546521;28;20036;-64
2022/12/11 02:37:15;;;;;;;0.73;0.73;;;;;;;;;;4482615;28;20038;-64
2022/12/11 02:39:26;;;;;;;0.98;0.80;;;;;;;;;;4525737;28;20152;-64
2022/12/11 02:41:38;;;;;;;0.65;0.65;;;;;;;;;;4546874;28;20042;-64
2022/12/11 02:43:49;;;;;;;0.70;0.70;;;;;;;;;;4547751;28;20033;-64
2022/12/11 02:46:01;;;;;;;0.70;0.70;;;;;;;;;;4546718;28;20041;-65
2022/12/11 02:48:12;;;;;;;0.77;0.77;;;;;;;;;;4546263;28;20017;-64
2022/12/11 02:50:24;;;;;;;0.82;0.80;;;;;;;;;;4545583;28;20036;-63
2022/12/11 02:52:35;;;;;;;0.80;0.80;;;;;;;;;;4546978;28;20179;-64
2022/12/11 02:54:46;;;;;;;0.70;0.70;;;;;;;;;;4546771;28;20044;-64
2022/12/11 02:57:07;;;;;;;1.00;0.90;;;;;;;;;;4547286;28;20033;-65
2022/12/11 02:59:24;;;;;;;0.70;0.70;;;;;;;;;;4547316;28;20044;-64
2022/12/11 03:01:34;;;;;;;0.73;0.73;;;;;;;;;;4532114;28;20041;-64
2022/12/11 03:03:44;;;;;;;0.70;0.70;;;;;;;;;;4545672;28;20063;-64
2022/12/11 03:05:55;;;;;;;0.80;0.80;;;;;;;;;;4546511;28;20068;-64
2022/12/11 03:08:05;;;;;;;0.80;0.80;;;;;;;;;;4546836;28;20043;-64
2022/12/11 03:10:17;;;;;;;0.65;0.65;;;;;;;;;;4546878;28;20044;-64
2022/12/11 03:12:30;;;;;;;0.70;0.70;;;;;;;;;;4543491;28;20975;-64
2022/12/11 03:14:41;;;;;;;0.68;0.68;;;;;;;;;;4545304;28;20037;-65
2022/12/11 03:16:56;;;;;;;0.65;0.65;;;;;;;;;;4545645;28;20386;-64
2022/12/11 03:19:15;;;;;;;0.60;0.60;;;;;;;;;;4546784;28;20587;-64
2022/12/11 03:21:31;;;;;;;0.70;0.70;;;;;;;;;;4545753;28;20111;-65
2022/12/11 03:23:41;;;;;;;0.70;0.70;;;;;;;;;;4545393;28;20033;-65
2022/12/11 03:26:12;;;;;;;0.70;0.70;;;;;;;;;;4547373;28;20056;-66
2022/12/11 03:28:57;;;;;;;0.80;0.80;;;;;;;;;;4545292;28;20588;-64
2022/12/11 03:31:10;;;;;;;0.82;0.82;;;;;;;;;;4491263;28;20037;-64
2022/12/11 03:33:26;;;;;;;0.73;0.73;;;;;;;;;;4513969;28;20080;-64
2022/12/11 03:35:41;;;;;;;0.73;0.73;;;;;;;;;;4545135;28;20485;-66
2022/12/11 03:37:52;;;;;;;0.70;0.70;;;;;;;;;;4544631;28;20580;-64
2022/12/11 03:40:05;;;;;;;0.70;0.70;;;;;;;;;;4545347;28;20037;-64
2022/12/11 03:42:16;;;;;;;0.77;0.77;;;;;;;;;;4546409;28;20123;-64
2022/12/11 03:44:28;;;;;;;0.75;0.75;;;;;;;;;;4545744;28;20136;-64
2022/12/11 03:46:39;;;;;;;0.70;0.70;;;;;;;;;;4545557;28;20033;-66
2022/12/11 03:48:51;;;;;;;0.85;0.75;;;;;;;;;;4546042;28;20632;-64
2022/12/11 03:51:03;;;;;;;0.75;0.75;;;;;;;;;;4546005;28;20590;-64
2022/12/11 03:53:15;;;;;;;0.80;0.80;;;;;;;;;;4546807;28;20036;-64
2022/12/11 03:55:25;;;;;;;0.77;0.77;;;;;;;;;;4547000;28;21014;-64
2022/12/11 03:57:36;;;;;;;0.80;0.80;;;;;;;;;;4544449;28;20066;-64
2022/12/11 03:59:47;;;;;;;0.70;0.70;;;;;;;;;;4542940;28;20032;-64
2022/12/11 04:01:57;;;;;;;0.80;0.80;;;;;;;;;;4535544;28;20045;-64
2022/12/11 04:04:08;;;;;;;0.77;0.77;;;;;;;;;;4545994;28;20083;-64
2022/12/11 04:06:18;;;;;;;0.70;0.70;;;;;;;;;;4546002;28;20041;-64
2022/12/11 04:08:28;;;;;;;0.90;0.90;;;;;;;;;;4544203;28;20021;-64
2022/12/11 04:10:39;;;;;;;0.70;0.70;;;;;;;;;;4546105;28;20037;-64
2022/12/11 04:12:49;;;;;;;0.70;0.70;;;;;;;;;;4545265;28;20088;-64
2022/12/11 04:15:03;;;;;;;0.70;0.70;;;;;;;;;;4531443;28;20447;-64
2022/12/11 04:24:13;;;;;;;0.80;0.80;;;;;;;;;;4546429;28;20033;-64
2022/12/11 04:24:42;;;;;;;0.80;0.80;;;;;;;;;;4546421;28;20052;-64
2022/12/11 04:26:53;;;;;;;0.90;0.90;;;;;;;;;;4544494;28;20031;-64
2022/12/11 04:29:03;;;;;;;0.70;0.70;;;;;;;;;;4546650;28;20124;-64
2022/12/11 04:31:15;;;;;;;0.60;0.60;;;;;;;;;;4544685;28;20521;-64
2022/12/11 04:33:25;;;;;;;0.70;0.70;;;;;;;;;;4545251;28;20622;-64
2022/12/11 04:35:35;;;;;;;0.90;0.90;;;;;;;;;;4546385;28;20328;-64
2022/12/11 04:37:45;;;;;;;0.70;0.70;;;;;;;;;;4543718;28;20060;-64
2022/12/11 04:39:56;;;;;;;0.70;0.70;;;;;;;;;;4544635;28;20086;-65
2022/12/11 04:42:06;;;;;;;0.80;0.80;;;;;;;;;;4546584;28;20043;-64
2022/12/11 04:44:16;;;;;;;0.65;0.65;;;;;;;;;;4544435;28;20120;-64
2022/12/11 04:46:27;;;;;;;0.98;0.85;;;;;;;;;;4544754;28;20709;-64
2022/12/11 04:48:38;;;;;;;0.90;0.90;;;;;;;;;;4545476;28;20044;-64
2022/12/11 04:50:48;;;;;;;0.82;0.80;;;;;;;;;;4544190;28;20040;-64
2022/12/11 04:52:59;;;;;;;0.82;0.82;;;;;;;;;;4546540;28;20044;-64
2022/12/11 04:55:09;;;;;;;0.80;0.80;;;;;;;;;;4545649;28;20047;-64
2022/12/11 04:57:20;;;;;;;0.85;0.85;;;;;;;;;;4544047;28;20036;-64
2022/12/11 04:59:31;;;;;;;0.80;0.80;;;;;;;;;;4543976;28;20061;-64
2022/12/11 05:01:41;;;;;;;0.80;0.80;;;;;;;;;;4545969;28;20029;-66
2022/12/11 05:03:52;;;;;;;1.10;1.00;;;;;;;;;;4545200;28;20128;-64
2022/12/11 05:06:02;;;;;;;0.82;0.82;;;;;;;;;;4544179;28;20091;-64
2022/12/11 05:08:13;;;;;;;0.70;0.70;;;;;;;;;;4547592;28;20182;-64
2022/12/11 05:10:23;;;;;;;0.80;0.80;;;;;;;;;;4549029;28;20079;-64
2022/12/11 05:12:33;;;;;;;0.80;0.80;;;;;;;;;;4548465;28;20388;-64
2022/12/11 05:14:43;;;;;;;1.00;0.90;;;;;;;;;;4547699;28;20744;-64
2022/12/11 05:16:54;;;;;;;0.80;0.80;;;;;;;;;;4547068;28;20099;-64
2022/12/11 05:19:04;;;;;;;1.00;0.90;;;;;;;;;;4546957;28;20108;-64
2022/12/11 05:21:14;;;;;;;0.80;0.80;;;;;;;;;;4548971;28;20029;-64
2022/12/11 05:23:25;;;;;;;0.90;0.90;;;;;;;;;;4548515;28;20043;-65
2022/12/11 05:25:35;;;;;;;0.93;0.85;;;;;;;;;;4546932;28;20048;-64
2022/12/11 05:27:45;;;;;;;0.77;0.77;;;;;;;;;;4546788;28;20033;-64
2022/12/11 05:29:56;;;;;;;0.98;0.88;;;;;;;;;;4547319;28;20590;-65
2022/12/11 05:32:06;;;;;;;0.75;0.75;;;;;;;;;;4531482;28;20021;-64
2022/12/11 05:34:16;;;;;;;0.82;0.80;;;;;;;;;;4547180;28;20041;-64
2022/12/11 05:36:29;;;;;;;0.75;0.70;;;;;;;;;;4549309;28;20175;-64
2022/12/11 05:38:39;;;;;;;1.05;0.98;;;;;;;;;;4548074;28;20055;-64
2022/12/11 05:41:04;;;;;;;0.80;0.80;;;;;;;;;;4516684;28;20042;-64
2022/12/11 05:43:14;;;;;;;0.82;0.80;;;;;;;;;;4546354;28;20036;-64
2022/12/11 05:45:24;;;;;;;0.98;0.82;;;;;;;;;;4548370;28;21315;-64
2022/12/11 05:47:35;;;;;;;0.80;0.80;;;;;;;;;;4548762;28;20037;-64
2022/12/11 05:49:46;;;;;;;0.82;0.82;;;;;;;;;;4547883;28;20029;-64
2022/12/11 05:51:56;;;;;;;0.80;0.80;;;;;;;;;;4546933;28;20037;-64
2022/12/11 05:54:07;;;;;;;1.15;0.95;;;;;;;;;;4548470;28;20048;-64
2022/12/11 05:56:19;;;;;;;1.05;0.95;;;;;;;;;;4547219;28;20048;-65
2022/12/11 05:58:30;;;;;;;1.10;1.00;;;;;;;;;;4530754;28;20041;-65
2022/12/11 06:00:40;;;;;;;0.77;0.77;;;;;;;;;;4548605;28;20069;-64
2022/12/11 06:02:51;;;;;;;0.90;0.85;;;;;;;;;;4548065;28;20571;-64
2022/12/11 06:05:01;;;;;;;0.80;0.80;;;;;;;;;;4547278;28;20037;-64
2022/12/11 06:07:12;;;;;;;0.82;0.80;;;;;;;;;;4548131;28;20043;-64
2022/12/11 06:09:22;;;;;;;0.90;0.90;;;;;;;;;;4546632;28;20390;-64
2022/12/11 06:11:33;;;;;;;1.08;0.98;;;;;;;;;;4548514;28;20044;-64
2022/12/11 06:13:43;;;;;;;0.80;0.80;;;;;;;;;;4547130;28;20044;-64
2022/12/11 06:15:53;;;;;;;1.05;0.90;;;;;;;;;;4546555;28;20597;-64
2022/12/11 06:18:03;;;;;;;1.30;1.10;;;;;;;;;;4548647;28;20068;-64
2022/12/11 06:20:14;;;;;;;1.10;1.00;;;;;;;;;;4546522;28;20037;-64
2022/12/11 06:22:24;;;;;;;1.00;0.90;;;;;;;;;;4548760;28;20043;-64
2022/12/11 06:24:34;;;;;;;1.17;0.90;;;;;;;;;;4533407;28;20037;-64
2022/12/11 06:26:45;;;;;;;1.13;1.02;;;;;;;;;;4546808;28;20045;-64
2022/12/11 06:28:55;;;;;;;1.02;0.90;;;;;;;;;;4546755;28;20067;-65
2022/12/11 06:31:06;;;;;;;0.80;0.80;;;;;;;;;;4533051;28;20166;-64
2022/12/11 06:33:16;;;;;;;1.08;0.98;;;;;;;;;;4546525;28;20052;-64
2022/12/11 06:35:27;;;;;;;1.02;0.93;;;;;;;;;;4546597;28;20051;-64
2022/12/11 06:37:37;;;;;;;1.15;1.05;;;;;;;;;;4547253;28;20064;-64
2022/12/11 06:39:47;;;;;;;1.00;0.90;;;;;;;;;;4547109;28;20540;-64
2022/12/11 06:41:58;;;;;;;1.25;1.10;;;;;;;;;;4546617;28;20488;-64
2022/12/11 06:44:08;;;;;;;1.00;0.90;;;;;;;;;;4545742;28;20562;-64
2022/12/11 06:46:19;;;;;;;1.00;0.90;;;;;;;;;;4547683;28;20412;-65
2022/12/11 06:48:29;;;;;;;1.10;1.00;;;;;;;;;;4547478;28;20035;-64
2022/12/11 06:50:39;;;;;;;1.10;1.00;;;;;;;;;;4546346;28;20025;-64
2022/12/11 06:52:49;;;;;;;0.82;0.82;;;;;;;;;;4547071;28;20116;-64
2022/12/11 06:55:00;;;;;;;0.90;0.90;;;;;;;;;;4527914;28;20066;-64
2022/12/11 06:57:10;;;;;;;0.95;0.77;;;;;;;;;;4546779;28;20036;-64
2022/12/11 06:59:20;;;;;;;1.20;1.10;;;;;;;;;;4545894;28;20404;-65
2022/12/11 07:01:31;;;;;;;1.00;0.90;;;;;;;;;;4547072;28;20028;-64
2022/12/11 07:03:41;;;;;;;1.17;1.00;;;;;;;;;;4533017;28;20041;-64
2022/12/11 07:05:51;;;;;;;0.90;0.90;;;;;;;;;;4546154;28;20099;-64
2022/12/11 07:08:02;;;;;;;1.25;0.90;;;;;;;;;;4533463;28;20516;-64
2022/12/11 07:10:12;;;;;;;1.05;0.95;;;;;;;;;;4546018;28;20040;-64
2022/12/11 07:12:22;;;;;;;1.30;1.05;;;;;;;;;;4546122;28;20039;-64
2022/12/11 07:14:33;;;;;;;1.02;0.93;;;;;;;;;;4546956;28;20123;-64
2022/12/11 07:16:43;;;;;;;1.00;0.95;;;;;;;;;;4545449;28;20102;-64
2022/12/11 07:18:53;;;;;;;1.20;1.10;;;;;;;;;;4546083;28;20056;-64
2022/12/11 07:21:04;;;;;;;1.35;1.10;;;;;;;;;;4545753;28;20032;-64
2022/12/11 07:23:14;;;;;;;1.20;1.10;;;;;;;;;;4545843;28;20048;-64
2022/12/11 07:25:25;;;;;;;0.90;0.90;;;;;;;;;;4545683;28;20564;-64
2022/12/11 07:27:35;;;;;;;0.88;0.85;;;;;;;;;;4545937;28;20041;-64
2022/12/11 07:29:45;;;;;;;1.10;1.00;;;;;;;;;;4544788;28;20052;-64
2022/12/11 07:31:56;;;;;;;1.20;1.10;;;;;;;;;;4547056;28;20029;-64
2022/12/11 07:34:06;;;;;;;1.10;1.00;;;;;;;;;;4545751;28;20040;-64
2022/12/11 07:36:16;;;;;;;1.20;1.10;;;;;;;;;;4544634;28;20037;-64
2022/12/11 07:38:27;;;;;;;1.10;1.00;;;;;;;;;;4546938;28;20485;-64
2022/12/11 07:40:37;;;;;;;1.10;1.00;;;;;;;;;;4544650;28;20124;-64
2022/12/11 07:42:47;;;;;;;1.10;1.00;;;;;;;;;;4545494;28;20072;-64
2022/12/11 07:44:58;;;;;;;1.20;1.10;;;;;;;;;;4536771;28;20078;-64
2022/12/11 07:47:08;;;;;;;1.10;1.00;;;;;;;;;;4545108;28;20033;-64
2022/12/11 07:49:18;;;;;;;0.98;0.88;;;;;;;;;;4544160;28;20041;-63
2022/12/11 07:51:29;;;;;;;1.23;1.13;;;;;;;;;;4545556;28;20052;-64
2022/12/11 07:53:40;;;;;;;0.95;0.90;;;;;;;;;;4546191;28;20036;-64
2022/12/11 07:55:51;;;;;;;1.13;1.00;;;;;;;;;;4544339;28;20036;-64
2022/12/11 07:58:01;;;;;;;1.17;1.08;;;;;;;;;;4545380;28;20028;-64
2022/12/11 08:00:11;;;;;;;1.15;1.00;;;;;;;;;;4531266;28;20045;-64
2022/12/11 08:02:24;;;;;;;1.05;0.95;;;;;;;;;;4544956;28;20056;-64
2022/12/11 08:04:35;;;;;;;1.20;1.10;;;;;;;;;;4546014;28;20123;-64
2022/12/11 08:06:46;;;;;;;1.02;0.93;;;;;;;;;;4544774;28;20032;-64
2022/12/11 08:08:57;;;;;;;1.00;1.00;;;;;;;;;;4546660;28;20088;-64
2022/12/11 08:11:10;;;;;;;1.25;1.15;;;;;;;;;;4544848;28;20029;-64
2022/12/11 08:13:20;;;;;;;1.10;1.00;;;;;;;;;;4545395;28;20037;-64
2022/12/11 08:15:30;;;;;;;1.00;0.90;;;;;;;;;;4543904;28;20519;-64
2022/12/11 08:17:41;;;;;;;1.15;1.00;;;;;;;;;;4543260;28;20524;-64
2022/12/11 08:19:51;;;;;;;1.40;1.05;;;;;;;;;;4546544;28;20033;-64
2022/12/11 08:22:02;;;;;;;1.13;1.02;;;;;;;;;;4528591;28;20046;-64
2022/12/11 08:24:15;;;;;;;1.35;1.20;;;;;;;;;;4544459;28;20025;-64
2022/12/11 08:26:27;;;;;;;1.20;1.10;;;;;;;;;;4544542;28;21723;-64
2022/12/11 08:28:37;;;;;;;1.20;1.08;;;;;;;;;;4545446;28;20630;-64
2022/12/11 08:30:47;;;;;;;1.20;1.10;;;;;;;;;;4546299;28;20605;-64
2022/12/11 08:32:58;;;;;;;1.25;1.10;;;;;;;;;;4546502;28;20067;-64
2022/12/11 08:35:09;;;;;;;1.20;1.10;;;;;;;;;;4544541;28;20058;-64
2022/12/11 08:37:19;;;;;;;1.10;1.00;;;;;;;;;;4539317;28;20052;-64
2022/12/11 08:39:29;;;;;;;1.27;1.05;;;;;;;;;;4544896;28;20036;-63
2022/12/11 08:41:40;;;;;;;1.27;1.17;;;;;;;;;;4546829;28;20068;-64
2022/12/11 08:43:54;;;;;;;1.25;1.15;;;;;;;;;;4548471;28;20131;-64
2022/12/11 08:46:04;;;;;;;0.85;0.85;;;;;;;;;;4547718;28;20107;-64
2022/12/11 08:48:14;;;;;;;1.30;1.10;;;;;;;;;;4549252;28;20107;-64
2022/12/11 08:50:25;;;;;;;1.30;1.02;;;;;;;;;;4548234;28;20041;-64
2022/12/11 08:52:35;;;;;;;1.20;1.10;;;;;;;;;;4547515;28;20444;-64
2022/12/11 08:54:46;;;;;;;1.00;0.90;;;;;;;;;;4546330;28;20135;-64
2022/12/11 08:56:56;;;;;;;1.35;1.13;;;;;;;;;;4529094;28;20048;-64
2022/12/11 08:59:06;;;;;;;1.38;1.20;;;;;;;;;;4548880;28;20048;-64
2022/12/11 09:01:24;;;;;;;1.25;1.00;;;;;;;;;;4547632;28;20032;-64
2022/12/11 09:03:35;;;;;;;0.90;0.90;;;;;;;;;;4547112;28;20037;-64
2022/12/11 09:05:45;;;;;;;1.20;1.08;;;;;;;;;;4548147;28;20036;-64
2022/12/11 09:07:57;;;;;;;1.55;1.10;;;;;;;;;;4546990;28;20127;-64
2022/12/11 09:10:08;;;;;;;1.58;1.02;;;;;;;;;;4534704;28;20100;-64
2022/12/11 09:12:19;;;;;;;1.20;1.10;;;;;;;;;;4547892;28;20040;-64
2022/12/11 09:14:30;;;;;;;1.20;1.10;;;;;;;;;;4550700;28;20461;-64
2022/12/11 09:16:40;;;;;;;1.30;1.15;;;;;;;;;;4548294;28;20087;-64
2022/12/11 09:18:52;;;;;;;1.10;1.00;;;;;;;;;;4546616;28;20040;-64
2022/12/11 09:21:07;;;;;;;1.52;1.25;;;;;;;;;;4548531;28;20043;-64
2022/12/11 09:23:18;;;;;;;1.30;1.13;;;;;;;;;;4546592;28;20071;-64
2022/12/11 09:25:28;;;;;;;1.30;1.13;;;;;;;;;;4548306;28;20120;-64
2022/12/11 09:27:38;;;;;;;1.27;1.08;;;;;;;;;;4548307;28;20045;-64
2022/12/11 09:29:49;;;;;;;1.30;1.17;;;;;;;;;;4548671;28;20043;-64
2022/12/11 09:31:59;;;;;;;1.15;0.90;;;;;;;;;;4545762;28;20031;-64
2022/12/11 09:34:10;;;;;;;1.27;1.00;;;;;;;;;;4547883;28;20460;-64
2022/12/11 09:36:21;;;;;;;1.30;1.20;;;;;;;;;;4548976;28;20120;-64
2022/12/11 09:38:32;;;;;;;1.30;1.10;;;;;;;;;;4546681;28;20603;-64
2022/12/11 09:40:42;;;;;;;1.40;1.05;;;;;;;;;;4548723;28;20455;-64
2022/12/11 09:42:58;;;;;;;1.42;1.20;;;;;;;;;;4547304;28;20502;-64
2022/12/11 09:45:12;;;;;;;1.33;1.20;;;;;;;;;;4548432;28;20055;-64
2022/12/11 09:47:22;;;;;;;1.35;1.20;;;;;;;;;;4547596;28;20501;-64
2022/12/11 09:49:36;;;;;;;1.17;1.08;;;;;;;;;;4547021;28;20769;-64
2022/12/11 09:51:48;;;;;;;1.30;1.17;;;;;;;;;;4547677;28;20215;-64
2022/12/11 09:54:00;;;;;;;1.13;1.02;;;;;;;;;;4545828;28;20264;-64
2022/12/11 09:56:22;;;;;;;1.38;0.90;;;;;;;;;;4546081;28;20037;-64
2022/12/11 09:58:48;;;;;;;1.10;1.00;;;;;;;;;;4546066;28;20037;-64
2022/12/11 10:01:20;;;;;;;1.23;1.10;;;;;;;;;;4546698;28;20059;-63
2022/12/11 10:03:36;;;;;;;1.25;1.15;;;;;;;;;;4546656;28;20114;-64
2022/12/11 10:05:55;;;;;;;1.15;1.05;;;;;;;;;;4548505;28;20744;-64
2022/12/11 10:08:13;;;;;;;1.48;1.10;;;;;;;;;;4546594;28;20036;-64
2022/12/11 10:10:34;;;;;;;1.30;1.10;;;;;;;;;;4544860;28;20036;-64
2022/12/11 10:12:49;;;;;;;1.25;0.98;;;;;;;;;;4547076;28;20139;-64
2022/12/11 10:15:02;;;;;;;1.33;1.10;;;;;;;;;;4547138;28;20032;-64
2022/12/11 10:17:26;;;;;;;1.20;1.10;;;;;;;;;;4546393;28;20135;-65
2022/12/11 10:19:37;;;;;;;1.20;1.10;;;;;;;;;;4548067;28;20029;-64
2022/12/11 10:21:48;;;;;;;1.13;1.02;;;;;;;;;;4537115;28;20041;-64
2022/12/11 10:23:59;;;;;;;1.10;1.00;;;;;;;;;;4543903;28;20576;-64
2022/12/11 10:26:14;;;;;;;1.63;1.17;;;;;;;;;;4545130;28;20051;-64
2022/12/11 10:28:26;;;;;;;1.27;1.17;;;;;;;;;;4547784;28;20033;-64
2022/12/11 10:30:37;;;;;;;1.10;1.00;;;;;;;;;;4546872;28;20227;-64
2022/12/11 10:33:01;;;;;;;1.75;1.20;;;;;;;;;;4545646;28;20048;-64
2022/12/11 10:35:17;;;;;;;1.00;0.90;;;;;;;;;;4545639;28;20044;-64
2022/12/11 10:37:28;;;;;;;1.40;1.30;;;;;;;;;;4546274;28;20028;-64
2022/12/11 10:39:38;;;;;;;1.30;1.20;;;;;;;;;;4537351;28;20045;-64
2022/12/11 10:41:49;;;;;;;1.02;0.93;;;;;;;;;;4534254;28;20033;-64
2022/12/11 10:44:00;;;;;;;1.23;1.13;;;;;;;;;;4547501;28;20041;-64
2022/12/11 10:46:37;;;;;;;1.48;1.30;;;;;;;;;;4545719;28;20096;-64
2022/12/11 10:48:49;;;;;;;1.17;1.08;;;;;;;;;;4542896;28;20067;-64
2022/12/11 10:51:01;;;;;;;1.20;1.00;;;;;;;;;;4539675;28;20032;-64
2022/12/11 10:53:21;;;;;;;1.13;1.02;;;;;;;;;;4548121;28;20044;-64
2022/12/11 10:55:43;;;;;;;1.20;1.10;;;;;;;;;;4527524;28;20761;-64
2022/12/11 10:57:54;;;;;;;1.20;1.00;;;;;;;;;;4546997;28;20040;-64
2022/12/11 11:00:06;;;;;;;1.20;1.10;;;;;;;;;;4547225;28;20049;-64
2022/12/11 11:02:19;;;;;;;1.10;1.00;;;;;;;;;;4546648;28;20119;-64
2022/12/11 11:04:35;;;;;;;1.25;1.10;;;;;;;;;;4545966;28;20068;-64
2022/12/11 11:06:46;;;;;;;1.48;1.15;;;;;;;;;;4546367;28;20139;-64
2022/12/11 11:08:57;;;;;;;1.08;0.98;;;;;;;;;;4545553;28;20033;-64
2022/12/11 11:11:18;;;;;;;1.40;1.08;;;;;;;;;;4547316;28;20044;-64
2022/12/11 11:13:30;;;;;;;1.25;1.15;;;;;;;;;;4544761;28;20032;-64
2022/12/11 11:15:40;;;;;;;1.30;1.20;;;;;;;;;;4543566;28;20037;-64
2022/12/11 11:17:52;;;;;;;1.20;1.10;;;;;;;;;;4544413;28;20037;-64
2022/12/11 11:20:11;;;;;;;0.90;0.85;;;;;;;;;;4544449;28;20025;-65
2022/12/11 11:22:22;;;;;;;1.38;1.20;;;;;;;;;;4545890;28;20067;-64
2022/12/11 11:24:35;;;;;;;1.50;1.20;;;;;;;;;;4531456;28;20056;-64
2022/12/11 11:26:45;;;;;;;1.38;1.20;;;;;;;;;;4545923;28;20055;-64
2022/12/11 11:28:55;;;;;;;1.20;1.10;;;;;;;;;;4539476;28;20025;-64
2022/12/11 11:31:10;;;;;;;1.10;0.98;;;;;;;;;;4544380;28;20044;-64
2022/12/11 11:33:21;;;;;;;1.27;1.10;;;;;;;;;;4545347;28;20036;-64
2022/12/11 11:35:31;;;;;;;1.20;1.00;;;;;;;;;;4545456;28;20508;-64
2022/12/11 11:37:52;;;;;;;1.20;1.10;;;;;;;;;;4545775;28;20037;-64
2022/12/11 11:40:07;;;;;;;1.17;1.00;;;;;;;;;;4520712;28;20815;-64
2022/12/11 11:42:36;;;;;;;1.15;1.05;;;;;;;;;;4544127;28;20032;-64
2022/12/11 11:44:58;;;;;;;1.13;1.02;;;;;;;;;;4546349;28;20044;-64
2022/12/11 11:47:18;;;;;;;1.10;1.00;;;;;;;;;;4529285;28;20045;-65
2022/12/11 11:49:29;;;;;;;1.23;1.10;;;;;;;;;;4528264;28;20049;-64
2022/12/11 11:51:41;;;;;;;1.13;0.98;;;;;;;;;;4544048;28;20041;-64
2022/12/11 11:53:54;;;;;;;1.33;1.10;;;;;;;;;;4546558;28;20033;-64
2022/12/11 11:56:07;;;;;;;1.30;1.20;;;;;;;;;;4544617;28;20040;-65
2022/12/11 11:58:21;;;;;;;1.35;1.20;;;;;;;;;;4543470;28;20025;-65
2022/12/11 12:00:32;;;;;;;1.13;1.02;;;;;;;;;;4545268;28;20090;-65
2022/12/11 12:02:43;;;;;;;1.25;1.00;;;;;;;;;;4545334;28;20032;-65
2022/12/11 12:04:53;;;;;;;1.10;1.00;;;;;;;;;;4543456;28;20039;-65
2022/12/11 12:07:27;;;;;;;1.30;1.17;;;;;;;;;;4545981;28;20112;-65
2022/12/11 12:09:52;;;;;;;1.20;1.10;;;;;;;;;;4518163;28;20054;-65
2022/12/11 12:12:03;;;;;;;1.10;1.00;;;;;;;;;;4543506;28;20611;-65
2022/12/11 12:14:20;;;;;;;1.20;1.10;;;;;;;;;;4544153;28;20041;-64
2022/12/11 12:16:49;;;;;;;1.20;1.10;;;;;;;;;;4546330;28;20047;-65
2022/12/11 12:19:11;;;;;;;1.35;1.10;;;;;;;;;;4548757;28;20737;-65
2022/12/11 12:21:35;;;;;;;1.45;1.20;;;;;;;;;;4546482;28;20041;-65
2022/12/11 12:23:58;;;;;;;1.13;1.02;;;;;;;;;;4546863;28;20153;-65
2022/12/11 12:26:26;;;;;;;1.10;1.00;;;;;;;;;;4547132;28;20045;-65
2022/12/11 12:28:44;;;;;;;1.40;1.10;;;;;;;;;;4548116;28;20036;-64
2022/12/11 12:30:54;;;;;;;;;;;;;;;;;;4547725;28;20131;-64
2022/12/11 12:33:04;;;;;;;1.20;1.10;;;;;;;;;;4547945;28;19920;-64
2022/12/11 12:35:18;;;;;;;1.17;1.05;;;;;;;;;;4547424;28;20803;-64
2022/12/11 12:37:54;;;;;;;1.20;1.00;;;;;;;;;;4547310;28;20073;-64
2022/12/11 12:40:23;;;;;;;1.20;1.10;;;;;;;;;;4544576;28;20053;-64
2022/12/11 12:42:42;;;;;;;1.13;1.02;;;;;;;;;;4548046;28;20095;-64
2022/12/11 12:45:12;;;;;;;1.02;0.90;;;;;;;;;;4546834;28;20123;-64
2022/12/11 12:47:23;;;;;;;1.35;1.10;;;;;;;;;;4526413;28;20052;-64
2022/12/11 12:49:41;;;;;;;1.35;1.25;;;;;;;;;;4548034;28;20029;-63
2022/12/11 12:51:51;;;;;;;1.10;1.00;;;;;;;;;;4546526;28;21020;-64
2022/12/11 12:54:02;;;;;;;1.17;1.00;;;;;;;;;;4547533;28;20025;-64
2022/12/11 12:56:13;;;;;;;1.30;1.10;;;;;;;;;;4548859;28;20180;-64
2022/12/11 12:58:28;;;;;;;1.30;1.10;;;;;;;;;;4548440;28;20496;-64
2022/12/11 13:00:40;;;;;;;1.33;1.15;;;;;;;;;;4546985;28;20528;-64
2022/12/11 13:02:52;;;;;;;1.17;1.08;;;;;;;;;;4547716;28;20033;-64
2022/12/11 13:05:17;;;;;;;1.13;0.90;;;;;;;;;;4548627;28;20033;-64
2022/12/11 13:07:30;;;;;;;1.60;1.23;;;;;;;;;;4548669;28;20036;-64
2022/12/11 13:09:40;;;;;;;1.20;1.10;;;;;;;;;;4543857;28;20037;-63
2022/12/11 13:11:56;;;;;;;1.17;1.08;;;;;;;;;;4548463;28;20500;-63
2022/12/11 13:14:22;;;;;;;1.00;0.90;;;;;;;;;;4531776;28;20112;-63
2022/12/11 13:16:36;;;;;;;1.35;1.10;;;;;;;;;;4532732;28;20147;-63
2022/12/11 13:18:47;;;;;;;1.10;1.00;;;;;;;;;;4548352;28;20155;-63
2022/12/11 13:20:57;;;;;;;1.20;1.10;;;;;;;;;;4547693;28;20602;-63
2022/12/11 13:23:15;;;;;;;1.10;1.00;;;;;;;;;;4547525;28;20059;-64
2022/12/11 13:25:27;;;;;;;1.20;1.10;;;;;;;;;;4546891;28;20096;-63